createdAt,value
2024-02-08T00:03:12.039Z,89.98
2024-02-08T00:08:13.959Z,92.29
2024-02-08T00:13:15.659Z,92.20
2024-02-08T00:18:19.593Z,90.44
2024-02-08T00:23:21.438Z,90.36
2024-02-08T00:28:23.400Z,91.49
2024-02-08T00:33:26.547Z,92.42
2024-02-08T00:38:31.349Z,92.10
2024-02-08T00:43:33.102Z,92.16
2024-02-08T00:48:34.787Z,92.71
2024-02-08T00:53:36.590Z,93.51
2024-02-08T00:58:38.228Z,93.06
2024-02-08T01:03:39.949Z,92.72
2024-02-08T01:08:41.585Z,93.47
2024-02-08T01:13:43.271Z,92.71
2024-02-08T01:18:45.052Z,92.46
2024-02-08T01:23:47.862Z,91.70
2024-02-08T01:28:49.561Z,91.20
2024-02-08T01:33:52.077Z,92.28
2024-02-08T01:38:53.803Z,92.05
2024-02-08T01:44:04.289Z,90.69
2024-02-08T01:49:12.394Z,91.92
2024-02-08T01:54:14.148Z,92.95
2024-02-08T01:59:20.924Z,92.09
2024-02-08T02:04:23.545Z,93.19
2024-02-08T02:09:26.430Z,93.27
2024-02-08T02:14:30.832Z,93.19
2024-02-08T02:19:33.080Z,93.91
2024-02-08T02:24:37.508Z,92.50
2024-02-08T02:29:40.367Z,93.51
2024-02-08T02:34:43.756Z,93.31
2024-02-08T02:39:48.831Z,92.53
2024-02-08T02:44:50.451Z,91.74
2024-02-08T02:49:56.251Z,92.61
2024-02-08T02:54:57.909Z,91.59
2024-02-08T03:00:00.814Z,90.97
2024-02-08T03:05:02.507Z,93.24
2024-02-08T03:10:04.344Z,94.87
2024-02-08T03:15:10.280Z,94.37
2024-02-08T03:20:18.050Z,95.35
2024-02-08T03:25:22.999Z,95.06
2024-02-08T03:30:24.803Z,94.46
2024-02-08T03:35:29.285Z,92.58
2024-02-08T03:40:34.464Z,93.17
2024-02-08T03:45:44.691Z,94.21
2024-02-08T03:50:51.642Z,95.08
2024-02-08T03:55:53.324Z,96.19
2024-02-08T04:00:55.706Z,95.84
2024-02-08T04:06:01.001Z,95.14
2024-02-08T04:11:02.792Z,94.75
2024-02-08T04:16:22.827Z,95.92
2024-02-08T04:21:42.951Z,96.07
2024-02-08T04:27:23.789Z,95.54
2024-02-08T04:32:43.810Z,94.31
2024-02-08T04:38:03.897Z,95.33
2024-02-08T04:43:23.835Z,94.17
2024-02-08T04:48:44.338Z,94.83
2024-02-08T04:53:45.975Z,94.21
2024-02-08T04:59:08.355Z,94.66
2024-02-08T05:04:09.386Z,93.87
2024-02-08T05:09:16.898Z,94.77
2024-02-08T05:14:23.612Z,95.15
2024-02-08T05:19:27.179Z,94.33
2024-02-08T05:24:31.450Z,92.74
2024-02-08T05:29:33.825Z,94.80
2024-02-08T05:34:38.115Z,95.39
2024-02-08T05:39:39.952Z,93.89
2024-02-08T05:44:42.309Z,94.35
2024-02-08T05:49:50.693Z,94.80
2024-02-08T05:54:53.480Z,94.59
2024-02-08T06:00:01.493Z,93.03
2024-02-08T06:05:19.392Z,93.17
2024-02-08T06:10:24.139Z,91.26
2024-02-08T06:15:34.065Z,91.49
2024-02-08T06:20:42.566Z,91.91
2024-02-08T06:26:02.401Z,91.42
2024-02-08T06:31:07.373Z,88.22
2024-02-08T06:36:09.985Z,89.56
2024-02-08T06:41:24.783Z,88.26
2024-02-08T06:46:49.506Z,88.51
2024-02-08T06:52:10.055Z,86.92
2024-02-08T06:57:30.802Z,88.02
2024-02-08T07:03:07.842Z,87.56
2024-02-08T07:08:27.847Z,87.80
2024-02-08T07:13:48.237Z,86.79
2024-02-08T07:19:09.001Z,86.81
2024-02-08T07:24:30.865Z,86.82
2024-02-08T07:29:50.911Z,86.44
2024-02-08T07:35:11.341Z,87.46
2024-02-08T07:40:24.701Z,87.39
2024-02-08T07:45:29.332Z,87.27
2024-02-08T07:50:37.235Z,86.94
2024-02-08T07:55:39.164Z,87.77
2024-02-08T08:00:41.158Z,87.47
2024-02-08T08:05:45.577Z,87.83
2024-02-08T08:10:49.018Z,88.19
2024-02-08T08:16:10.734Z,86.82
2024-02-08T08:21:27.148Z,87.67
2024-02-08T08:26:40.450Z,87.68
2024-02-08T08:31:52.697Z,86.91
2024-02-08T08:37:05.096Z,86.56
2024-02-08T08:42:07.326Z,86.94
2024-02-08T08:47:09.068Z,86.34
2024-02-08T08:52:24.657Z,88.63
2024-02-08T08:57:26.709Z,87.58
2024-02-08T09:02:30.792Z,87.01
2024-02-08T09:07:32.716Z,88.59
2024-02-08T09:12:41.029Z,86.11
2024-02-08T09:17:53.053Z,86.62
2024-02-08T09:22:58.460Z,88.69
2024-02-08T09:28:16.131Z,87.44
2024-02-08T09:33:31.239Z,87.23
2024-02-08T09:38:46.247Z,87.49
2024-02-08T09:43:50.007Z,87.47
2024-02-08T09:48:53.246Z,88.00
2024-02-08T09:53:55.710Z,88.12
2024-02-08T09:59:10.290Z,87.98
2024-02-08T10:04:18.825Z,88.08
2024-02-08T10:09:41.327Z,87.92
2024-02-08T10:14:43.501Z,88.07
2024-02-08T10:20:14.261Z,88.56
2024-02-08T10:25:34.838Z,88.20
2024-02-08T10:30:45.531Z,88.78
2024-02-08T10:35:48.995Z,88.49
2024-02-08T10:40:57.149Z,89.71
2024-02-08T10:46:05.249Z,90.35
2024-02-08T10:51:13.201Z,91.65
2024-02-08T10:56:18.308Z,92.17
2024-02-08T11:01:39.328Z,90.96
2024-02-08T11:06:55.848Z,91.49
2024-02-08T11:12:05.331Z,91.23
2024-02-08T11:17:12.441Z,90.83
2024-02-08T11:22:26.096Z,91.01
2024-02-08T11:27:29.072Z,90.92
2024-02-08T11:32:32.425Z,91.06
2024-02-08T11:37:39.179Z,90.83
2024-02-08T11:42:43.240Z,91.09
2024-02-08T11:47:50.300Z,91.73
2024-02-08T11:53:00.302Z,91.64
2024-02-08T11:58:07.130Z,90.58
2024-02-08T12:03:11.383Z,90.69
2024-02-08T12:08:14.539Z,90.76
2024-02-08T12:13:17.436Z,90.04
2024-02-08T12:18:20.117Z,90.48
2024-02-08T12:23:31.032Z,90.99
2024-02-08T12:28:35.712Z,90.12
2024-02-08T12:33:37.641Z,90.50
2024-02-08T12:38:39.539Z,89.64
2024-02-08T12:43:43.954Z,90.48
2024-02-08T12:48:48.384Z,90.42
2024-02-08T12:54:03.289Z,90.25
2024-02-08T12:59:05.492Z,89.90
2024-02-08T13:04:07.820Z,91.75
2024-02-08T13:09:38.876Z,92.07
2024-02-08T13:14:43.967Z,91.11
2024-02-08T13:19:57.342Z,92.08
2024-02-08T13:25:00.094Z,91.70
2024-02-08T13:30:02.221Z,93.09
2024-02-08T13:35:04.333Z,93.60
2024-02-08T13:40:08.887Z,94.59
2024-02-08T13:45:13.117Z,94.51
2024-02-08T13:50:14.797Z,95.22
2024-02-08T13:55:19.677Z,96.71
2024-02-08T14:00:23.458Z,97.17
2024-02-08T14:05:26.846Z,97.08
2024-02-08T14:10:29.517Z,98.26
2024-02-08T14:15:32.069Z,98.02
2024-02-08T14:20:44.852Z,99.04
2024-02-08T14:25:59.485Z,98.58
2024-02-08T14:31:01.836Z,98.82
2024-02-08T14:36:08.182Z,98.93
2024-02-08T14:41:28.953Z,98.96
2024-02-08T14:46:30.760Z,99.22
2024-02-08T14:51:37.413Z,99.61
2024-02-08T14:56:42.281Z,98.91
2024-02-08T15:01:53.386Z,99.02
2024-02-08T15:07:07.503Z,99.93
2024-02-08T15:12:28.530Z,99.97
2024-02-08T15:17:31.012Z,98.18
2024-02-08T15:22:32.722Z,98.38
2024-02-08T15:27:55.802Z,98.42
2024-02-08T15:32:57.455Z,96.91
2024-02-08T15:38:17.681Z,96.23
2024-02-08T15:43:19.358Z,96.40
2024-02-08T15:48:33.129Z,96.62
2024-02-08T15:53:50.580Z,95.74
2024-02-08T15:59:13.895Z,95.76
2024-02-08T16:04:42.587Z,96.94
2024-02-08T16:09:51.203Z,96.16
2024-02-08T16:15:09.537Z,95.86
2024-02-08T16:20:17.988Z,96.10
2024-02-08T16:25:41.525Z,97.03
2024-02-08T16:31:01.729Z,96.75
2024-02-08T16:36:23.160Z,96.64
2024-02-08T16:41:32.067Z,96.47
2024-02-08T16:46:37.250Z,96.79
2024-02-08T16:51:39.508Z,95.87
2024-02-08T16:56:43.046Z,96.53
2024-02-08T17:02:03.693Z,96.96
2024-02-08T17:07:12.209Z,97.71
2024-02-08T17:12:29.323Z,98.36
2024-02-08T17:17:39.375Z,97.56
2024-02-08T17:22:50.813Z,97.98
2024-02-08T17:28:01.630Z,98.40
2024-02-08T17:33:03.634Z,99.67
2024-02-08T17:38:05.325Z,99.34
2024-02-08T17:43:18.394Z,99.01
2024-02-08T17:48:21.561Z,99.83
2024-02-08T17:53:23.470Z,99.18
2024-02-08T17:58:25.698Z,98.72
2024-02-08T18:03:27.474Z,99.10
2024-02-08T18:08:29.193Z,99.99
2024-02-08T18:13:31.200Z,100.00
2024-02-08T18:18:32.875Z,99.96
2024-02-08T18:23:34.730Z,100.00
2024-02-08T18:28:36.556Z,100.00
2024-02-08T18:33:39.010Z,100.00
2024-02-08T18:38:40.921Z,100.00
2024-02-08T18:43:45.640Z,100.00
2024-02-08T18:48:54.554Z,98.70
2024-02-08T18:53:57.048Z,98.76
2024-02-08T18:59:00.731Z,98.58
2024-02-08T19:04:04.814Z,99.12
2024-02-08T19:09:08.352Z,100.00
2024-02-08T19:14:10.007Z,100.00
2024-02-08T19:19:12.448Z,100.00
2024-02-08T19:24:18.670Z,100.00
2024-02-08T19:29:25.469Z,100.00
2024-02-08T19:34:30.362Z,100.00
2024-02-08T19:39:32.090Z,100.00
2024-02-08T19:44:36.353Z,100.00
2024-02-08T19:49:40.515Z,100.00
2024-02-08T19:54:43.223Z,100.00
2024-02-08T19:59:49.919Z,100.00
2024-02-08T20:05:01.839Z,100.00
2024-02-08T20:10:13.022Z,100.00
2024-02-08T20:15:18.672Z,100.00
2024-02-08T20:20:21.002Z,100.00
2024-02-08T20:25:28.635Z,100.00
2024-02-08T20:30:34.321Z,100.00
2024-02-08T20:35:36.064Z,100.00
2024-02-08T20:40:37.689Z,100.00
2024-02-08T20:45:40.042Z,100.00
2024-02-08T20:50:42.137Z,100.00
2024-02-08T20:55:45.719Z,100.00
2024-02-08T21:00:52.733Z,100.00
2024-02-08T21:05:56.171Z,100.00
2024-02-08T21:10:59.708Z,100.00
2024-02-08T21:16:01.681Z,100.00
2024-02-08T21:21:04.471Z,100.00
2024-02-08T21:26:10.820Z,100.00
2024-02-08T21:31:13.843Z,100.00
2024-02-08T21:36:16.899Z,100.00
2024-02-08T21:41:18.894Z,100.00
2024-02-08T21:46:22.717Z,100.00
2024-02-08T21:51:26.607Z,100.00
2024-02-08T21:56:28.238Z,100.00
2024-02-08T22:01:36.762Z,100.00
2024-02-08T22:06:39.248Z,100.00
2024-02-08T22:11:48.761Z,100.00
2024-02-08T22:16:52.748Z,100.00
2024-02-08T22:21:54.469Z,100.00
2024-02-08T22:26:57.691Z,100.00
2024-02-08T22:31:59.346Z,100.00
2024-02-08T22:37:03.219Z,100.00
2024-02-08T22:42:07.176Z,100.00
2024-02-08T22:47:08.893Z,100.00
2024-02-08T22:52:11.692Z,100.00
2024-02-08T22:57:13.413Z,100.00
2024-02-08T23:02:17.633Z,100.00
2024-02-08T23:07:20.100Z,100.00
2024-02-08T23:12:22.527Z,100.00
2024-02-08T23:17:24.610Z,100.00
2024-02-08T23:22:27.308Z,100.00
2024-02-08T23:27:29.468Z,100.00
2024-02-08T23:32:34.368Z,100.00
2024-02-08T23:37:38.292Z,100.00
2024-02-08T23:42:41.169Z,100.00
2024-02-08T23:47:44.420Z,100.00
2024-02-08T23:52:46.933Z,100.00
2024-02-08T23:57:48.675Z,100.00
